sensor_id;sensor_type;location;lat;lon;timestamp;P1;durP1;ratioP1;P2;durP2;ratioP2
45114;SDS011;30877;43.706;10.780;2022-08-21T00:00:28;7.57;;;4.28;;
45114;SDS011;30877;43.706;10.780;2022-08-21T00:02:59;8.35;;;4.38;;
45114;SDS011;30877;43.706;10.780;2022-08-21T00:05:30;6.38;;;4.13;;
45114;SDS011;30877;43.706;10.780;2022-08-21T00:08:01;5.90;;;4.50;;
45114;SDS011;30877;43.706;10.780;2022-08-21T00:10:29;5.40;;;4.15;;
45114;SDS011;30877;43.706;10.780;2022-08-21T00:12:57;6.40;;;4.80;;
45114;SDS011;30877;43.706;10.780;2022-08-21T00:15:27;10.57;;;4.45;;
45114;SDS011;30877;43.706;10.780;2022-08-21T00:17:57;6.60;;;4.25;;
45114;SDS011;30877;43.706;10.780;2022-08-21T00:20:25;7.30;;;4.60;;
45114;SDS011;30877;43.706;10.780;2022-08-21T00:22:54;6.32;;;4.90;;
45114;SDS011;30877;43.706;10.780;2022-08-21T00:25:24;8.18;;;4.15;;
45114;SDS011;30877;43.706;10.780;2022-08-21T00:27:53;8.32;;;4.18;;
45114;SDS011;30877;43.706;10.780;2022-08-21T00:30:23;7.22;;;4.07;;
45114;SDS011;30877;43.706;10.780;2022-08-21T00:32:52;7.65;;;4.30;;
45114;SDS011;30877;43.706;10.780;2022-08-21T00:35:23;9.05;;;4.00;;
45114;SDS011;30877;43.706;10.780;2022-08-21T00:37:52;7.30;;;4.50;;
45114;SDS011;30877;43.706;10.780;2022-08-21T00:40:22;10.35;;;4.70;;
45114;SDS011;30877;43.706;10.780;2022-08-21T00:43:00;11.05;;;4.63;;
45114;SDS011;30877;43.706;10.780;2022-08-21T00:45:30;10.88;;;4.60;;
45114;SDS011;30877;43.706;10.780;2022-08-21T00:47:58;10.23;;;4.10;;
45114;SDS011;30877;43.706;10.780;2022-08-21T00:50:27;8.85;;;4.60;;
45114;SDS011;30877;43.706;10.780;2022-08-21T00:53:03;7.43;;;4.35;;
45114;SDS011;30877;43.706;10.780;2022-08-21T00:55:34;8.38;;;5.00;;
45114;SDS011;30877;43.706;10.780;2022-08-21T00:58:11;8.07;;;5.05;;
45114;SDS011;30877;43.706;10.780;2022-08-21T01:00:43;8.43;;;5.15;;
45114;SDS011;30877;43.706;10.780;2022-08-21T01:03:14;8.35;;;4.78;;
45114;SDS011;30877;43.706;10.780;2022-08-21T01:05:43;6.35;;;4.50;;
45114;SDS011;30877;43.706;10.780;2022-08-21T01:08:13;9.20;;;4.63;;
45114;SDS011;30877;43.706;10.780;2022-08-21T01:10:43;9.60;;;4.88;;
45114;SDS011;30877;43.706;10.780;2022-08-21T01:13:26;11.20;;;4.05;;
45114;SDS011;30877;43.706;10.780;2022-08-21T01:15:58;7.60;;;5.00;;
45114;SDS011;30877;43.706;10.780;2022-08-21T01:18:29;8.70;;;4.60;;
45114;SDS011;30877;43.706;10.780;2022-08-21T01:21:09;9.57;;;4.80;;
45114;SDS011;30877;43.706;10.780;2022-08-21T01:23:40;5.95;;;4.10;;
45114;SDS011;30877;43.706;10.780;2022-08-21T01:26:09;7.82;;;4.35;;
45114;SDS011;30877;43.706;10.780;2022-08-21T01:28:38;13.93;;;5.15;;
45114;SDS011;30877;43.706;10.780;2022-08-21T01:31:09;9.13;;;4.90;;
45114;SDS011;30877;43.706;10.780;2022-08-21T01:33:39;8.50;;;4.78;;
45114;SDS011;30877;43.706;10.780;2022-08-21T01:36:08;9.93;;;5.22;;
45114;SDS011;30877;43.706;10.780;2022-08-21T01:38:36;8.65;;;4.50;;
45114;SDS011;30877;43.706;10.780;2022-08-21T01:41:05;6.05;;;4.90;;
45114;SDS011;30877;43.706;10.780;2022-08-21T01:43:34;8.05;;;4.82;;
45114;SDS011;30877;43.706;10.780;2022-08-21T01:46:05;9.95;;;4.70;;
45114;SDS011;30877;43.706;10.780;2022-08-21T01:48:33;9.10;;;4.72;;
45114;SDS011;30877;43.706;10.780;2022-08-21T01:51:02;6.53;;;3.85;;
45114;SDS011;30877;43.706;10.780;2022-08-21T01:53:32;8.18;;;4.80;;
45114;SDS011;30877;43.706;10.780;2022-08-21T01:56:03;10.05;;;4.60;;
45114;SDS011;30877;43.706;10.780;2022-08-21T01:58:38;7.10;;;3.85;;
45114;SDS011;30877;43.706;10.780;2022-08-21T02:01:07;9.07;;;4.00;;
45114;SDS011;30877;43.706;10.780;2022-08-21T02:03:36;6.43;;;4.22;;
45114;SDS011;30877;43.706;10.780;2022-08-21T02:06:04;5.95;;;3.80;;
45114;SDS011;30877;43.706;10.780;2022-08-21T02:08:35;7.00;;;4.10;;
45114;SDS011;30877;43.706;10.780;2022-08-21T02:11:03;7.13;;;4.03;;
45114;SDS011;30877;43.706;10.780;2022-08-21T02:13:30;6.75;;;3.80;;
45114;SDS011;30877;43.706;10.780;2022-08-21T02:15:58;11.57;;;4.30;;
45114;SDS011;30877;43.706;10.780;2022-08-21T02:18:26;6.60;;;4.53;;
45114;SDS011;30877;43.706;10.780;2022-08-21T02:20:54;5.85;;;3.75;;
45114;SDS011;30877;43.706;10.780;2022-08-21T02:23:22;5.40;;;3.70;;
45114;SDS011;30877;43.706;10.780;2022-08-21T02:25:54;6.00;;;3.85;;
45114;SDS011;30877;43.706;10.780;2022-08-21T02:28:23;6.32;;;3.92;;
45114;SDS011;30877;43.706;10.780;2022-08-21T02:30:53;7.15;;;4.55;;
45114;SDS011;30877;43.706;10.780;2022-08-21T02:33:23;7.55;;;4.20;;
45114;SDS011;30877;43.706;10.780;2022-08-21T02:35:51;14.30;;;6.07;;
45114;SDS011;30877;43.706;10.780;2022-08-21T02:38:20;12.77;;;6.20;;
45114;SDS011;30877;43.706;10.780;2022-08-21T02:40:50;11.10;;;5.05;;
45114;SDS011;30877;43.706;10.780;2022-08-21T02:43:20;14.00;;;5.93;;
45114;SDS011;30877;43.706;10.780;2022-08-21T02:45:50;12.50;;;5.28;;
45114;SDS011;30877;43.706;10.780;2022-08-21T02:48:19;10.80;;;5.32;;
45114;SDS011;30877;43.706;10.780;2022-08-21T02:50:52;10.98;;;5.20;;
45114;SDS011;30877;43.706;10.780;2022-08-21T02:53:21;11.27;;;5.78;;
45114;SDS011;30877;43.706;10.780;2022-08-21T02:55:50;18.77;;;6.20;;
45114;SDS011;30877;43.706;10.780;2022-08-21T02:58:22;14.77;;;6.43;;
45114;SDS011;30877;43.706;10.780;2022-08-21T03:00:51;10.93;;;6.03;;
45114;SDS011;30877;43.706;10.780;2022-08-21T03:03:21;16.17;;;7.85;;
45114;SDS011;30877;43.706;10.780;2022-08-21T03:08:25;17.30;;;7.68;;
45114;SDS011;30877;43.706;10.780;2022-08-21T03:10:54;17.13;;;6.70;;
45114;SDS011;30877;43.706;10.780;2022-08-21T03:13:25;14.75;;;6.70;;
45114;SDS011;30877;43.706;10.780;2022-08-21T03:15:54;14.23;;;6.75;;
45114;SDS011;30877;43.706;10.780;2022-08-21T03:18:24;14.90;;;7.22;;
45114;SDS011;30877;43.706;10.780;2022-08-21T03:20:52;17.83;;;7.22;;
45114;SDS011;30877;43.706;10.780;2022-08-21T03:23:21;19.58;;;7.07;;
45114;SDS011;30877;43.706;10.780;2022-08-21T03:25:49;16.80;;;8.48;;
45114;SDS011;30877;43.706;10.780;2022-08-21T03:28:21;21.05;;;8.05;;
45114;SDS011;30877;43.706;10.780;2022-08-21T03:30:51;17.20;;;8.07;;
45114;SDS011;30877;43.706;10.780;2022-08-21T03:33:20;21.17;;;9.75;;
45114;SDS011;30877;43.706;10.780;2022-08-21T03:35:53;24.58;;;10.60;;
45114;SDS011;30877;43.706;10.780;2022-08-21T03:38:25;21.98;;;10.40;;
45114;SDS011;30877;43.706;10.780;2022-08-21T03:40:54;21.88;;;10.18;;
45114;SDS011;30877;43.706;10.780;2022-08-21T03:43:22;24.98;;;12.07;;
45114;SDS011;30877;43.706;10.780;2022-08-21T03:45:52;19.77;;;10.68;;
45114;SDS011;30877;43.706;10.780;2022-08-21T03:48:20;25.50;;;11.18;;
45114;SDS011;30877;43.706;10.780;2022-08-21T03:50:51;24.88;;;12.02;;
45114;SDS011;30877;43.706;10.780;2022-08-21T03:53:19;23.98;;;11.38;;
45114;SDS011;30877;43.706;10.780;2022-08-21T03:55:48;22.15;;;10.98;;
45114;SDS011;30877;43.706;10.780;2022-08-21T03:58:19;25.45;;;12.40;;
45114;SDS011;30877;43.706;10.780;2022-08-21T04:00:49;22.52;;;10.73;;
45114;SDS011;30877;43.706;10.780;2022-08-21T04:03:21;26.95;;;11.15;;
45114;SDS011;30877;43.706;10.780;2022-08-21T04:05:49;26.42;;;10.10;;
45114;SDS011;30877;43.706;10.780;2022-08-21T04:08:17;25.63;;;11.75;;
45114;SDS011;30877;43.706;10.780;2022-08-21T04:10:46;23.98;;;9.90;;
45114;SDS011;30877;43.706;10.780;2022-08-21T04:13:16;25.08;;;10.75;;
45114;SDS011;30877;43.706;10.780;2022-08-21T04:15:45;19.02;;;10.50;;
45114;SDS011;30877;43.706;10.780;2022-08-21T04:18:15;23.88;;;10.65;;
45114;SDS011;30877;43.706;10.780;2022-08-21T04:20:43;24.73;;;11.07;;
45114;SDS011;30877;43.706;10.780;2022-08-21T04:23:16;22.00;;;10.30;;
45114;SDS011;30877;43.706;10.780;2022-08-21T04:25:50;25.30;;;11.23;;
45114;SDS011;30877;43.706;10.780;2022-08-21T04:28:19;18.38;;;9.57;;
45114;SDS011;30877;43.706;10.780;2022-08-21T04:30:49;22.90;;;10.65;;
45114;SDS011;30877;43.706;10.780;2022-08-21T04:33:20;19.13;;;10.60;;
45114;SDS011;30877;43.706;10.780;2022-08-21T04:35:49;18.92;;;10.32;;
45114;SDS011;30877;43.706;10.780;2022-08-21T04:38:17;18.42;;;9.07;;
45114;SDS011;30877;43.706;10.780;2022-08-21T04:40:46;16.58;;;9.98;;
45114;SDS011;30877;43.706;10.780;2022-08-21T04:43:15;19.38;;;10.55;;
45114;SDS011;30877;43.706;10.780;2022-08-21T04:45:45;21.48;;;10.80;;
45114;SDS011;30877;43.706;10.780;2022-08-21T04:48:15;19.60;;;10.48;;
45114;SDS011;30877;43.706;10.780;2022-08-21T04:50:48;21.50;;;10.20;;
45114;SDS011;30877;43.706;10.780;2022-08-21T04:53:20;21.30;;;10.18;;
45114;SDS011;30877;43.706;10.780;2022-08-21T04:55:52;24.10;;;11.32;;
45114;SDS011;30877;43.706;10.780;2022-08-21T04:58:22;20.23;;;12.27;;
45114;SDS011;30877;43.706;10.780;2022-08-21T05:00:53;23.45;;;12.15;;
45114;SDS011;30877;43.706;10.780;2022-08-21T05:03:23;28.33;;;11.68;;
45114;SDS011;30877;43.706;10.780;2022-08-21T05:05:53;25.63;;;10.45;;
45114;SDS011;30877;43.706;10.780;2022-08-21T05:08:22;28.15;;;12.23;;
45114;SDS011;30877;43.706;10.780;2022-08-21T05:10:52;28.35;;;10.68;;
45114;SDS011;30877;43.706;10.780;2022-08-21T05:13:26;23.05;;;10.50;;
45114;SDS011;30877;43.706;10.780;2022-08-21T05:15:54;24.88;;;9.60;;
45114;SDS011;30877;43.706;10.780;2022-08-21T05:18:22;22.15;;;10.35;;
45114;SDS011;30877;43.706;10.780;2022-08-21T05:20:51;31.25;;;12.10;;
45114;SDS011;30877;43.706;10.780;2022-08-21T05:23:20;30.33;;;10.73;;
45114;SDS011;30877;43.706;10.780;2022-08-21T05:25:49;33.65;;;11.23;;
45114;SDS011;30877;43.706;10.780;2022-08-21T05:28:17;29.33;;;11.18;;
45114;SDS011;30877;43.706;10.780;2022-08-21T05:30:45;25.08;;;11.15;;
45114;SDS011;30877;43.706;10.780;2022-08-21T05:33:14;32.63;;;12.23;;
45114;SDS011;30877;43.706;10.780;2022-08-21T05:35:42;36.92;;;14.05;;
45114;SDS011;30877;43.706;10.780;2022-08-21T05:38:11;40.60;;;15.00;;
45114;SDS011;30877;43.706;10.780;2022-08-21T05:40:44;40.40;;;14.13;;
45114;SDS011;30877;43.706;10.780;2022-08-21T05:43:12;28.48;;;12.20;;
45114;SDS011;30877;43.706;10.780;2022-08-21T05:45:41;39.85;;;13.68;;
45114;SDS011;30877;43.706;10.780;2022-08-21T05:48:11;37.20;;;12.98;;
45114;SDS011;30877;43.706;10.780;2022-08-21T05:50:40;42.15;;;13.35;;
45114;SDS011;30877;43.706;10.780;2022-08-21T05:53:09;33.90;;;13.38;;
45114;SDS011;30877;43.706;10.780;2022-08-21T05:55:39;42.75;;;13.65;;
45114;SDS011;30877;43.706;10.780;2022-08-21T05:58:12;38.30;;;12.93;;
45114;SDS011;30877;43.706;10.780;2022-08-21T06:00:41;39.20;;;13.13;;
45114;SDS011;30877;43.706;10.780;2022-08-21T06:03:12;34.28;;;12.85;;
45114;SDS011;30877;43.706;10.780;2022-08-21T06:05:42;33.50;;;14.05;;
45114;SDS011;30877;43.706;10.780;2022-08-21T06:08:13;32.17;;;13.52;;
45114;SDS011;30877;43.706;10.780;2022-08-21T06:10:42;29.00;;;12.57;;
45114;SDS011;30877;43.706;10.780;2022-08-21T06:13:11;28.08;;;13.57;;
45114;SDS011;30877;43.706;10.780;2022-08-21T06:15:39;25.60;;;13.65;;
45114;SDS011;30877;43.706;10.780;2022-08-21T06:18:08;24.05;;;12.38;;
45114;SDS011;30877;43.706;10.780;2022-08-21T06:20:36;26.02;;;13.40;;
45114;SDS011;30877;43.706;10.780;2022-08-21T06:23:04;22.13;;;13.48;;
45114;SDS011;30877;43.706;10.780;2022-08-21T06:25:34;24.02;;;13.45;;
45114;SDS011;30877;43.706;10.780;2022-08-21T06:28:03;29.10;;;14.05;;
45114;SDS011;30877;43.706;10.780;2022-08-21T06:30:33;24.70;;;13.70;;
45114;SDS011;30877;43.706;10.780;2022-08-21T06:33:02;24.98;;;12.93;;
45114;SDS011;30877;43.706;10.780;2022-08-21T06:35:30;23.50;;;12.93;;
45114;SDS011;30877;43.706;10.780;2022-08-21T06:37:58;24.25;;;13.43;;
45114;SDS011;30877;43.706;10.780;2022-08-21T06:40:26;23.65;;;13.68;;
45114;SDS011;30877;43.706;10.780;2022-08-21T06:42:57;24.73;;;12.65;;
45114;SDS011;30877;43.706;10.780;2022-08-21T06:45:31;22.13;;;12.25;;
45114;SDS011;30877;43.706;10.780;2022-08-21T06:47:59;22.02;;;13.00;;
45114;SDS011;30877;43.706;10.780;2022-08-21T06:50:28;26.55;;;13.38;;
45114;SDS011;30877;43.706;10.780;2022-08-21T06:53:00;28.35;;;13.10;;
45114;SDS011;30877;43.706;10.780;2022-08-21T06:55:30;20.10;;;12.68;;
45114;SDS011;30877;43.706;10.780;2022-08-21T06:58:00;25.25;;;13.57;;
45114;SDS011;30877;43.706;10.780;2022-08-21T07:00:29;22.70;;;13.45;;
45114;SDS011;30877;43.706;10.780;2022-08-21T07:02:58;24.42;;;12.05;;
45114;SDS011;30877;43.706;10.780;2022-08-21T07:05:27;24.52;;;13.10;;
45114;SDS011;30877;43.706;10.780;2022-08-21T07:07:55;25.55;;;12.55;;
45114;SDS011;30877;43.706;10.780;2022-08-21T07:10:24;20.77;;;12.70;;
45114;SDS011;30877;43.706;10.780;2022-08-21T07:12:53;22.42;;;12.48;;
45114;SDS011;30877;43.706;10.780;2022-08-21T07:15:29;19.45;;;11.88;;
45114;SDS011;30877;43.706;10.780;2022-08-21T07:20:40;22.73;;;12.25;;
45114;SDS011;30877;43.706;10.780;2022-08-21T07:23:10;24.00;;;12.65;;
45114;SDS011;30877;43.706;10.780;2022-08-21T07:25:44;360.73;;;45.97;;
45114;SDS011;30877;43.706;10.780;2022-08-21T07:28:13;119.18;;;22.23;;
45114;SDS011;30877;43.706;10.780;2022-08-21T07:30:43;87.07;;;19.20;;
45114;SDS011;30877;43.706;10.780;2022-08-21T07:33:12;105.50;;;19.65;;
45114;SDS011;30877;43.706;10.780;2022-08-21T07:35:40;43.65;;;14.68;;
45114;SDS011;30877;43.706;10.780;2022-08-21T07:38:08;28.50;;;12.88;;
45114;SDS011;30877;43.706;10.780;2022-08-21T07:40:36;32.40;;;12.77;;
45114;SDS011;30877;43.706;10.780;2022-08-21T07:43:05;28.60;;;12.40;;
45114;SDS011;30877;43.706;10.780;2022-08-21T07:45:34;23.40;;;11.68;;
45114;SDS011;30877;43.706;10.780;2022-08-21T07:48:04;25.38;;;10.90;;
45114;SDS011;30877;43.706;10.780;2022-08-21T07:50:32;25.35;;;10.65;;
45114;SDS011;30877;43.706;10.780;2022-08-21T07:53:01;22.52;;;10.30;;
45114;SDS011;30877;43.706;10.780;2022-08-21T07:55:29;18.95;;;9.45;;
45114;SDS011;30877;43.706;10.780;2022-08-21T07:57:57;26.55;;;10.05;;
45114;SDS011;30877;43.706;10.780;2022-08-21T08:00:26;19.23;;;8.50;;
45114;SDS011;30877;43.706;10.780;2022-08-21T08:02:55;17.25;;;8.27;;
45114;SDS011;30877;43.706;10.780;2022-08-21T08:05:27;19.08;;;8.45;;
45114;SDS011;30877;43.706;10.780;2022-08-21T08:07:57;15.35;;;7.20;;
45114;SDS011;30877;43.706;10.780;2022-08-21T08:10:26;44.90;;;10.55;;
45114;SDS011;30877;43.706;10.780;2022-08-21T08:12:55;72.20;;;10.40;;
45114;SDS011;30877;43.706;10.780;2022-08-21T08:15:24;83.97;;;12.82;;
45114;SDS011;30877;43.706;10.780;2022-08-21T08:17:54;16.27;;;6.80;;
45114;SDS011;30877;43.706;10.780;2022-08-21T08:20:25;29.50;;;7.80;;
45114;SDS011;30877;43.706;10.780;2022-08-21T08:22:54;14.85;;;6.30;;
45114;SDS011;30877;43.706;10.780;2022-08-21T08:25:23;22.73;;;6.68;;
45114;SDS011;30877;43.706;10.780;2022-08-21T08:27:53;17.45;;;6.50;;
45114;SDS011;30877;43.706;10.780;2022-08-21T08:30:21;13.90;;;6.15;;
45114;SDS011;30877;43.706;10.780;2022-08-21T08:32:53;14.00;;;6.35;;
45114;SDS011;30877;43.706;10.780;2022-08-21T08:35:23;13.07;;;5.68;;
45114;SDS011;30877;43.706;10.780;2022-08-21T08:37:54;9.75;;;5.28;;
45114;SDS011;30877;43.706;10.780;2022-08-21T08:40:25;7.90;;;5.10;;
45114;SDS011;30877;43.706;10.780;2022-08-21T08:43:01;12.05;;;5.78;;
45114;SDS011;30877;43.706;10.780;2022-08-21T08:45:29;10.07;;;4.72;;
45114;SDS011;30877;43.706;10.780;2022-08-21T08:48:04;9.40;;;5.78;;
45114;SDS011;30877;43.706;10.780;2022-08-21T08:50:41;9.90;;;5.10;;
45114;SDS011;30877;43.706;10.780;2022-08-21T08:53:15;9.07;;;5.00;;
45114;SDS011;30877;43.706;10.780;2022-08-21T08:55:49;8.75;;;5.15;;
45114;SDS011;30877;43.706;10.780;2022-08-21T08:58:20;6.45;;;5.13;;
45114;SDS011;30877;43.706;10.780;2022-08-21T09:00:52;9.82;;;5.95;;
45114;SDS011;30877;43.706;10.780;2022-08-21T09:03:22;7.53;;;5.03;;
45114;SDS011;30877;43.706;10.780;2022-08-21T09:05:53;6.70;;;5.03;;
45114;SDS011;30877;43.706;10.780;2022-08-21T09:08:32;7.80;;;5.30;;
45114;SDS011;30877;43.706;10.780;2022-08-21T09:11:13;10.23;;;5.82;;
45114;SDS011;30877;43.706;10.780;2022-08-21T09:13:50;8.88;;;5.50;;
45114;SDS011;30877;43.706;10.780;2022-08-21T09:16:25;9.05;;;5.97;;
45114;SDS011;30877;43.706;10.780;2022-08-21T09:19:03;10.20;;;5.90;;
45114;SDS011;30877;43.706;10.780;2022-08-21T09:21:38;8.82;;;5.30;;
45114;SDS011;30877;43.706;10.780;2022-08-21T09:24:22;8.70;;;5.63;;
45114;SDS011;30877;43.706;10.780;2022-08-21T09:27:02;10.88;;;5.30;;
45114;SDS011;30877;43.706;10.780;2022-08-21T09:29:36;8.10;;;6.35;;
45114;SDS011;30877;43.706;10.780;2022-08-21T09:32:09;10.43;;;5.95;;
45114;SDS011;30877;43.706;10.780;2022-08-21T09:34:54;12.70;;;5.85;;
45114;SDS011;30877;43.706;10.780;2022-08-21T09:37:24;10.98;;;6.20;;
45114;SDS011;30877;43.706;10.780;2022-08-21T09:39:54;8.07;;;5.55;;
45114;SDS011;30877;43.706;10.780;2022-08-21T09:42:25;11.27;;;6.70;;
45114;SDS011;30877;43.706;10.780;2022-08-21T09:45:05;12.38;;;9.48;;
45114;SDS011;30877;43.706;10.780;2022-08-21T09:47:39;8.07;;;7.25;;
45114;SDS011;30877;43.706;10.780;2022-08-21T09:50:09;8.15;;;5.57;;
45114;SDS011;30877;43.706;10.780;2022-08-21T09:52:43;8.30;;;5.72;;
45114;SDS011;30877;43.706;10.780;2022-08-21T09:55:26;7.97;;;5.53;;
45114;SDS011;30877;43.706;10.780;2022-08-21T09:58:17;7.70;;;5.15;;
45114;SDS011;30877;43.706;10.780;2022-08-21T10:00:56;9.35;;;5.07;;
45114;SDS011;30877;43.706;10.780;2022-08-21T10:03:26;9.73;;;5.07;;
45114;SDS011;30877;43.706;10.780;2022-08-21T10:05:56;9.45;;;4.90;;
45114;SDS011;30877;43.706;10.780;2022-08-21T10:08:27;7.63;;;5.35;;
45114;SDS011;30877;43.706;10.780;2022-08-21T10:11:04;6.93;;;3.92;;
45114;SDS011;30877;43.706;10.780;2022-08-21T10:13:38;7.55;;;4.80;;
45114;SDS011;30877;43.706;10.780;2022-08-21T10:16:17;4.85;;;3.45;;
45114;SDS011;30877;43.706;10.780;2022-08-21T10:18:58;4.32;;;3.75;;
45114;SDS011;30877;43.706;10.780;2022-08-21T10:21:35;5.53;;;3.50;;
45114;SDS011;30877;43.706;10.780;2022-08-21T10:24:09;6.10;;;3.50;;
45114;SDS011;30877;43.706;10.780;2022-08-21T10:27:00;7.07;;;3.65;;
45114;SDS011;30877;43.706;10.780;2022-08-21T10:29:42;7.68;;;4.60;;
45114;SDS011;30877;43.706;10.780;2022-08-21T10:32:20;7.05;;;3.30;;
45114;SDS011;30877;43.706;10.780;2022-08-21T10:35:08;4.40;;;3.72;;
45114;SDS011;30877;43.706;10.780;2022-08-21T10:37:47;7.40;;;4.07;;
45114;SDS011;30877;43.706;10.780;2022-08-21T10:40:28;4.90;;;3.70;;
45114;SDS011;30877;43.706;10.780;2022-08-21T10:43:07;5.45;;;3.10;;
45114;SDS011;30877;43.706;10.780;2022-08-21T10:45:48;4.97;;;3.80;;
45114;SDS011;30877;43.706;10.780;2022-08-21T10:48:24;4.97;;;3.75;;
45114;SDS011;30877;43.706;10.780;2022-08-21T10:50:59;4.90;;;3.20;;
45114;SDS011;30877;43.706;10.780;2022-08-21T10:53:36;4.15;;;3.53;;
45114;SDS011;30877;43.706;10.780;2022-08-21T10:56:15;4.43;;;3.50;;
45114;SDS011;30877;43.706;10.780;2022-08-21T10:58:49;3.88;;;3.38;;
45114;SDS011;30877;43.706;10.780;2022-08-21T11:01:27;5.80;;;3.75;;
45114;SDS011;30877;43.706;10.780;2022-08-21T11:04:06;5.63;;;3.80;;
45114;SDS011;30877;43.706;10.780;2022-08-21T11:06:45;4.53;;;3.50;;
45114;SDS011;30877;43.706;10.780;2022-08-21T11:10:04;8.07;;;5.07;;
45114;SDS011;30877;43.706;10.780;2022-08-21T11:12:42;5.05;;;3.65;;
45114;SDS011;30877;43.706;10.780;2022-08-21T11:15:24;5.38;;;4.20;;
45114;SDS011;30877;43.706;10.780;2022-08-21T11:18:07;5.55;;;3.95;;
45114;SDS011;30877;43.706;10.780;2022-08-21T11:20:46;4.60;;;3.70;;
45114;SDS011;30877;43.706;10.780;2022-08-21T11:23:22;4.68;;;3.60;;
45114;SDS011;30877;43.706;10.780;2022-08-21T11:25:58;6.18;;;3.63;;
45114;SDS011;30877;43.706;10.780;2022-08-21T11:28:33;5.97;;;3.70;;
45114;SDS011;30877;43.706;10.780;2022-08-21T11:31:07;4.78;;;3.25;;
45114;SDS011;30877;43.706;10.780;2022-08-21T11:33:48;5.18;;;3.25;;
45114;SDS011;30877;43.706;10.780;2022-08-21T11:36:24;4.07;;;3.53;;
45114;SDS011;30877;43.706;10.780;2022-08-21T11:39:01;4.20;;;3.20;;
45114;SDS011;30877;43.706;10.780;2022-08-21T11:41:37;5.35;;;4.10;;
45114;SDS011;30877;43.706;10.780;2022-08-21T11:44:11;4.07;;;3.17;;
45114;SDS011;30877;43.706;10.780;2022-08-21T11:46:49;5.20;;;3.40;;
45114;SDS011;30877;43.706;10.780;2022-08-21T11:49:29;4.50;;;3.53;;
45114;SDS011;30877;43.706;10.780;2022-08-21T11:52:11;5.30;;;3.20;;
45114;SDS011;30877;43.706;10.780;2022-08-21T11:54:45;3.30;;;2.67;;
45114;SDS011;30877;43.706;10.780;2022-08-21T11:57:23;3.15;;;2.40;;
45114;SDS011;30877;43.706;10.780;2022-08-21T11:59:57;4.50;;;2.60;;
45114;SDS011;30877;43.706;10.780;2022-08-21T12:02:40;3.67;;;2.50;;
45114;SDS011;30877;43.706;10.780;2022-08-21T12:05:21;3.15;;;2.38;;
45114;SDS011;30877;43.706;10.780;2022-08-21T12:08:04;4.38;;;2.13;;
45114;SDS011;30877;43.706;10.780;2022-08-21T12:10:36;3.72;;;2.53;;
45114;SDS011;30877;43.706;10.780;2022-08-21T12:13:09;4.65;;;2.10;;
45114;SDS011;30877;43.706;10.780;2022-08-21T12:15:52;4.20;;;2.20;;
45114;SDS011;30877;43.706;10.780;2022-08-21T12:21:32;3.50;;;2.00;;
45114;SDS011;30877;43.706;10.780;2022-08-21T12:24:05;2.75;;;2.05;;
45114;SDS011;30877;43.706;10.780;2022-08-21T12:26:49;5.05;;;2.17;;
45114;SDS011;30877;43.706;10.780;2022-08-21T12:29:21;5.78;;;2.13;;
45114;SDS011;30877;43.706;10.780;2022-08-21T12:31:53;4.18;;;1.85;;
45114;SDS011;30877;43.706;10.780;2022-08-21T12:34:27;3.85;;;1.80;;
45114;SDS011;30877;43.706;10.780;2022-08-21T12:37:02;5.72;;;1.88;;
45114;SDS011;30877;43.706;10.780;2022-08-21T12:39:36;1.85;;;1.27;;
45114;SDS011;30877;43.706;10.780;2022-08-21T12:42:15;3.53;;;1.67;;
45114;SDS011;30877;43.706;10.780;2022-08-21T12:44:45;4.13;;;1.80;;
45114;SDS011;30877;43.706;10.780;2022-08-21T12:47:21;3.38;;;1.63;;
45114;SDS011;30877;43.706;10.780;2022-08-21T12:49:56;3.10;;;1.75;;
45114;SDS011;30877;43.706;10.780;2022-08-21T12:52:29;4.28;;;1.65;;
45114;SDS011;30877;43.706;10.780;2022-08-21T12:55:05;3.83;;;1.65;;
45114;SDS011;30877;43.706;10.780;2022-08-21T12:57:36;5.50;;;1.90;;
45114;SDS011;30877;43.706;10.780;2022-08-21T13:00:05;2.25;;;1.65;;
45114;SDS011;30877;43.706;10.780;2022-08-21T13:02:41;3.90;;;2.05;;
45114;SDS011;30877;43.706;10.780;2022-08-21T13:05:16;4.50;;;2.40;;
45114;SDS011;30877;43.706;10.780;2022-08-21T13:07:51;3.22;;;1.83;;
45114;SDS011;30877;43.706;10.780;2022-08-21T13:10:22;2.83;;;1.70;;
45114;SDS011;30877;43.706;10.780;2022-08-21T13:12:53;2.00;;;1.52;;
45114;SDS011;30877;43.706;10.780;2022-08-21T13:15:24;4.70;;;1.83;;
45114;SDS011;30877;43.706;10.780;2022-08-21T13:17:59;2.67;;;1.42;;
45114;SDS011;30877;43.706;10.780;2022-08-21T13:20:32;4.38;;;1.50;;
45114;SDS011;30877;43.706;10.780;2022-08-21T13:23:02;3.88;;;1.70;;
45114;SDS011;30877;43.706;10.780;2022-08-21T13:25:35;4.85;;;1.63;;
45114;SDS011;30877;43.706;10.780;2022-08-21T13:28:07;3.03;;;1.63;;
45114;SDS011;30877;43.706;10.780;2022-08-21T13:30:39;3.25;;;1.70;;
45114;SDS011;30877;43.706;10.780;2022-08-21T13:33:10;6.05;;;1.70;;
45114;SDS011;30877;43.706;10.780;2022-08-21T13:35:48;6.00;;;2.10;;
45114;SDS011;30877;43.706;10.780;2022-08-21T13:38:19;2.03;;;1.38;;
45114;SDS011;30877;43.706;10.780;2022-08-21T13:40:54;3.75;;;1.80;;
45114;SDS011;30877;43.706;10.780;2022-08-21T13:43:26;4.25;;;1.73;;
45114;SDS011;30877;43.706;10.780;2022-08-21T13:45:55;4.35;;;1.60;;
45114;SDS011;30877;43.706;10.780;2022-08-21T13:48:24;5.32;;;2.10;;
45114;SDS011;30877;43.706;10.780;2022-08-21T13:50:57;4.07;;;1.90;;
45114;SDS011;30877;43.706;10.780;2022-08-21T13:53:29;3.38;;;1.60;;
45114;SDS011;30877;43.706;10.780;2022-08-21T13:56:00;4.25;;;1.70;;
45114;SDS011;30877;43.706;10.780;2022-08-21T13:58:29;3.97;;;1.50;;
45114;SDS011;30877;43.706;10.780;2022-08-21T14:00:59;5.70;;;2.13;;
45114;SDS011;30877;43.706;10.780;2022-08-21T14:03:34;3.85;;;1.73;;
45114;SDS011;30877;43.706;10.780;2022-08-21T14:06:11;3.42;;;1.40;;
45114;SDS011;30877;43.706;10.780;2022-08-21T14:08:41;3.90;;;1.60;;
45114;SDS011;30877;43.706;10.780;2022-08-21T14:11:15;2.72;;;1.60;;
45114;SDS011;30877;43.706;10.780;2022-08-21T14:13:45;3.13;;;1.25;;
45114;SDS011;30877;43.706;10.780;2022-08-21T14:16:17;4.20;;;1.30;;
45114;SDS011;30877;43.706;10.780;2022-08-21T14:18:48;3.38;;;1.40;;
45114;SDS011;30877;43.706;10.780;2022-08-21T14:21:31;3.40;;;1.30;;
45114;SDS011;30877;43.706;10.780;2022-08-21T14:24:05;1.85;;;1.42;;
45114;SDS011;30877;43.706;10.780;2022-08-21T14:27:01;5.20;;;1.43;;
45114;SDS011;30877;43.706;10.780;2022-08-21T14:32:25;4.13;;;1.40;;
45114;SDS011;30877;43.706;10.780;2022-08-21T14:34:58;3.85;;;1.30;;
45114;SDS011;30877;43.706;10.780;2022-08-21T14:37:27;5.65;;;1.30;;
45114;SDS011;30877;43.706;10.780;2022-08-21T14:39:55;4.38;;;1.60;;
45114;SDS011;30877;43.706;10.780;2022-08-21T14:42:23;2.63;;;1.17;;
45114;SDS011;30877;43.706;10.780;2022-08-21T14:44:52;2.10;;;1.45;;
45114;SDS011;30877;43.706;10.780;2022-08-21T14:47:26;2.47;;;1.20;;
45114;SDS011;30877;43.706;10.780;2022-08-21T14:49:55;4.07;;;1.38;;
45114;SDS011;30877;43.706;10.780;2022-08-21T14:52:23;3.35;;;1.17;;
45114;SDS011;30877;43.706;10.780;2022-08-21T14:54:53;1.90;;;1.13;;
45114;SDS011;30877;43.706;10.780;2022-08-21T14:57:21;2.33;;;1.20;;
45114;SDS011;30877;43.706;10.780;2022-08-21T14:59:50;3.55;;;1.40;;
45114;SDS011;30877;43.706;10.780;2022-08-21T15:02:18;6.45;;;1.00;;